Time;durP1;ratioP1;P1;durP2;ratioP2;P2;SDS_P1;SDS_P2;PMS_P1;PMS_P2;Temp;Humidity;BMP_temperature;BMP_pressure;BME280_temperature;BME280_humidity;BME280_pressure;Samples;Min_cycle;Max_cycle;Signal;HPM_P1;HPM_P2
2023/07/18 00:01:20;;;;;;;12.13;7.77;;;20.10;99.90;;;;;;6249298;23;20261;-88
2023/07/18 00:03:48;;;;;;;10.30;7.43;;;20.00;99.90;;;;;;6275026;22;20170;-88
2023/07/18 00:06:18;;;;;;;12.00;7.50;;;20.00;99.90;;;;;;6275312;22;20260;-88
2023/07/18 00:08:45;;;;;;;9.60;7.50;;;19.90;99.90;;;;;;6251172;22;20245;-88
2023/07/18 00:11:13;;;;;;;11.10;8.10;;;19.90;99.90;;;;;;6224346;23;20518;-88
2023/07/18 00:13:40;;;;;;;11.07;7.43;;;19.90;99.90;;;;;;6249831;23;20186;-88
2023/07/18 00:16:08;;;;;;;13.83;8.10;;;19.90;99.90;;;;;;6250040;23;20265;-88
2023/07/18 00:18:36;;;;;;;10.00;7.90;;;19.80;99.90;;;;;;6275070;22;20409;-88
2023/07/18 00:21:05;;;;;;;12.50;8.23;;;19.70;99.90;;;;;;6249415;23;20166;-88
2023/07/18 00:23:32;;;;;;;12.70;7.90;;;19.70;99.90;;;;;;6275095;22;20165;-87
2023/07/18 00:25:59;;;;;;;14.63;9.30;;;19.60;99.90;;;;;;6251172;22;20190;-89
2023/07/18 00:28:28;;;;;;;12.10;8.63;;;19.40;99.90;;;;;;6275249;22;20194;-88
2023/07/18 00:30:55;;;;;;;11.30;8.00;;;19.40;99.90;;;;;;6251734;22;20166;-88
2023/07/18 00:33:23;;;;;;;12.43;8.57;;;19.40;99.90;;;;;;6251070;22;20162;-89
2023/07/18 00:35:51;;;;;;;10.83;8.17;;;19.50;99.90;;;;;;6249374;23;20377;-89
2023/07/18 00:38:18;;;;;;;13.57;8.50;;;19.40;99.90;;;;;;6275049;22;20166;-88
2023/07/18 00:40:48;;;;;;;12.43;8.50;;;19.30;99.90;;;;;;6249115;23;20170;-88
2023/07/18 00:43:15;;;;;;;15.20;9.10;;;19.30;99.90;;;;;;6274325;22;20269;-88
2023/07/18 00:45:44;;;;;;;13.27;9.37;;;19.30;99.90;;;;;;6249507;23;20173;-88
2023/07/18 00:48:11;;;;;;;14.17;8.67;;;19.20;99.90;;;;;;6274984;22;20201;-88
2023/07/18 00:50:38;;;;;;;13.13;9.50;;;19.10;99.90;;;;;;6249445;23;20265;-89
2023/07/18 00:53:06;;;;;;;11.73;8.33;;;19.10;99.90;;;;;;6250578;22;20225;-88
2023/07/18 00:55:34;;;;;;;14.93;8.93;;;19.20;99.90;;;;;;6249182;23;20190;-89
2023/07/18 00:58:03;;;;;;;11.17;8.47;;;19.10;99.90;;;;;;6274613;22;20182;-89
2023/07/18 01:00:31;;;;;;;12.10;8.30;;;19.20;99.90;;;;;;6249500;23;20162;-88
2023/07/18 01:02:58;;;;;;;14.13;9.73;;;19.20;99.90;;;;;;6248483;23;20226;-88
2023/07/18 01:05:25;;;;;;;15.63;9.13;;;19.10;99.90;;;;;;6223847;23;20484;-88
2023/07/18 01:07:53;;;;;;;15.07;9.30;;;19.10;99.90;;;;;;6250897;23;20189;-88
2023/07/18 01:10:24;;;;;;;15.80;8.60;;;19.20;99.90;;;;;;6252154;22;20495;-86
2023/07/18 01:12:56;;;;;;;15.07;9.63;;;19.00;99.90;;;;;;6276683;22;20197;-88
2023/07/18 01:15:29;;;;;;;14.50;9.43;;;18.90;99.90;;;;;;6251196;23;20186;-88
2023/07/18 01:17:57;;;;;;;14.30;8.93;;;19.00;99.90;;;;;;6251474;23;20237;-88
2023/07/18 01:20:27;;;;;;;16.33;9.40;;;18.90;99.90;;;;;;6251368;23;20437;-88
2023/07/18 01:22:56;;;;;;;13.37;8.70;;;18.90;99.90;;;;;;6251111;23;20214;-88
2023/07/18 01:25:23;;;;;;;13.27;8.50;;;18.90;99.90;;;;;;6226373;23;20166;-88
2023/07/18 01:27:53;;;;;;;14.90;9.63;;;18.90;99.90;;;;;;6276547;22;20277;-89
2023/07/18 01:30:25;;;;;;;13.97;8.97;;;18.90;99.90;;;;;;6251466;23;20475;-89
2023/07/18 01:32:53;;;;;;;15.13;9.30;;;18.90;99.90;;;;;;6250587;23;20210;-89
2023/07/18 01:35:23;;;;;;;14.50;9.13;;;18.80;99.90;;;;;;6250506;23;20214;-85
2023/07/18 01:37:52;;;;;;;12.60;8.80;;;18.80;99.90;;;;;;6250832;23;20186;-87
2023/07/18 01:40:20;;;;;;;13.23;7.70;;;18.80;99.90;;;;;;6250621;23;20490;-88
2023/07/18 01:42:52;;;;;;;14.03;8.50;;;18.90;99.90;;;;;;6251004;23;20218;-89
2023/07/18 01:45:21;;;;;;;13.23;8.10;;;19.10;99.90;;;;;;6276881;22;20254;-87
2023/07/18 01:47:49;;;;;;;12.43;8.27;;;19.10;99.90;;;;;;6250588;23;20196;-88
2023/07/18 01:50:17;;;;;;;9.83;7.43;;;19.00;99.90;;;;;;6251831;22;20216;-86
2023/07/18 01:52:46;;;;;;;9.30;6.63;;;18.90;99.90;;;;;;6250465;23;20190;-88
2023/07/18 01:55:14;;;;;;;8.87;5.83;;;18.80;99.90;;;;;;6278767;22;20494;-88
2023/07/18 01:57:44;;;;;;;10.30;5.93;;;18.80;99.90;;;;;;6255739;22;20186;-88
2023/07/18 02:00:14;;;;;;;11.27;5.67;;;18.70;99.90;;;;;;6256253;22;20169;-87
2023/07/18 02:02:41;;;;;;;12.87;5.50;;;18.60;99.90;;;;;;6256706;22;20228;-88
2023/07/18 02:05:09;;;;;;;9.90;5.03;;;18.60;99.90;;;;;;6256278;22;20253;-88
2023/07/18 02:07:36;;;;;;;8.37;4.90;;;18.60;99.90;;;;;;6283468;22;20177;-87
2023/07/18 02:10:03;;;;;;;6.97;4.97;;;18.50;99.90;;;;;;6282163;22;20193;-88
2023/07/18 02:12:30;;;;;;;9.60;4.63;;;18.40;99.90;;;;;;6255704;22;20185;-87
2023/07/18 02:14:57;;;;;;;7.27;4.77;;;18.30;99.90;;;;;;6282161;22;20181;-86
2023/07/18 02:17:25;;;;;;;8.73;4.87;;;18.20;99.90;;;;;;6255041;22;20259;-87
2023/07/18 02:19:52;;;;;;;7.77;4.63;;;18.20;99.90;;;;;;6281738;22;20157;-86
2023/07/18 02:22:21;;;;;;;7.63;4.67;;;18.10;99.90;;;;;;6254892;22;20189;-86
2023/07/18 02:24:49;;;;;;;7.67;4.10;;;18.00;99.90;;;;;;6255544;22;20180;-85
2023/07/18 02:27:16;;;;;;;10.70;4.30;;;17.90;99.90;;;;;;6282261;22;20235;-86
2023/07/18 02:29:43;;;;;;;6.33;3.80;;;17.80;99.90;;;;;;6254693;22;20170;-87
2023/07/18 02:32:10;;;;;;;5.93;3.40;;;17.70;99.90;;;;;;6281965;22;20446;-88
2023/07/18 02:34:39;;;;;;;7.40;3.10;;;17.70;99.90;;;;;;6281831;22;20173;-88
2023/07/18 02:37:07;;;;;;;4.20;3.27;;;17.70;99.90;;;;;;6280785;22;20623;-87
2023/07/18 02:39:35;;;;;;;6.30;3.20;;;17.80;99.90;;;;;;6282363;22;20492;-86
2023/07/18 02:42:03;;;;;;;5.00;3.23;;;17.80;99.90;;;;;;6255249;22;20182;-86
2023/07/18 02:44:30;;;;;;;5.03;3.20;;;17.80;99.90;;;;;;6255674;22;20184;-85
2023/07/18 02:46:57;;;;;;;5.20;3.20;;;17.70;99.90;;;;;;6255388;22;20212;-86
2023/07/18 02:49:24;;;;;;;4.97;3.20;;;17.70;99.90;;;;;;6255225;22;20165;-86
2023/07/18 02:51:51;;;;;;;6.10;3.40;;;17.70;99.90;;;;;;6282065;22;20188;-86
2023/07/18 02:54:19;;;;;;;7.37;3.70;;;17.70;99.90;;;;;;6224049;23;20573;-87
2023/07/18 02:56:48;;;;;;;12.23;4.50;;;17.50;99.90;;;;;;6251374;23;20492;-87
2023/07/18 02:59:20;;;;;;;6.87;3.93;;;17.50;99.90;;;;;;6250128;23;20158;-86
2023/07/18 03:01:49;;;;;;;7.60;3.93;;;17.60;99.90;;;;;;6225834;23;20233;-87
2023/07/18 03:04:17;;;;;;;6.37;3.60;;;17.60;99.90;;;;;;6252308;22;20163;-86
2023/07/18 03:06:52;;;;;;;6.83;3.80;;;17.50;99.90;;;;;;6275768;22;20581;-87
2023/07/18 03:09:21;;;;;;;7.10;3.90;;;17.40;99.90;;;;;;6252109;22;20158;-85
2023/07/18 03:11:51;;;;;;;6.07;3.83;;;17.30;99.90;;;;;;6250677;23;20208;-87
2023/07/18 03:14:19;;;;;;;7.20;3.80;;;17.30;99.90;;;;;;6252542;22;20201;-86
2023/07/18 03:16:47;;;;;;;8.43;3.90;;;17.30;99.90;;;;;;6250954;22;20201;-87
2023/07/18 03:19:15;;;;;;;6.67;3.47;;;17.30;99.90;;;;;;6251037;22;20162;-86
2023/07/18 03:21:45;;;;;;;7.33;3.67;;;17.30;99.90;;;;;;6250444;23;20545;-87
2023/07/18 03:24:12;;;;;;;7.07;3.93;;;17.20;99.90;;;;;;6224721;23;20186;-86
2023/07/18 03:26:39;;;;;;;6.23;3.87;;;17.20;99.90;;;;;;6224863;23;20190;-86
2023/07/18 03:29:07;;;;;;;7.10;3.70;;;17.10;99.90;;;;;;6275782;22;20189;-87
2023/07/18 03:31:34;;;;;;;6.27;3.70;;;17.10;99.90;;;;;;6251280;23;20178;-87
2023/07/18 03:34:04;;;;;;;5.80;3.60;;;17.00;99.90;;;;;;6275980;22;20193;-87
2023/07/18 03:36:32;;;;;;;7.83;3.83;;;17.10;99.90;;;;;;6251236;22;20218;-86
2023/07/18 03:38:59;;;;;;;7.23;4.07;;;16.90;99.90;;;;;;6249800;23;20222;-87
2023/07/18 03:41:26;;;;;;;8.47;4.27;;;17.00;99.90;;;;;;6249964;23;20565;-86
2023/07/18 03:43:54;;;;;;;5.20;3.80;;;17.00;99.90;;;;;;6275516;22;20158;-87
2023/07/18 03:46:21;;;;;;;7.63;4.07;;;16.90;99.90;;;;;;6250186;23;20565;-87
2023/07/18 03:48:49;;;;;;;7.07;3.90;;;16.90;99.90;;;;;;6249733;23;20424;-86
2023/07/18 03:51:16;;;;;;;7.00;3.97;;;17.00;99.90;;;;;;6274818;22;20182;-86
2023/07/18 03:53:44;;;;;;;6.90;4.13;;;16.90;99.90;;;;;;6258267;22;20196;-86
2023/07/18 03:56:11;;;;;;;7.30;4.10;;;16.90;99.90;;;;;;6281285;22;20211;-87
2023/07/18 03:58:39;;;;;;;7.57;4.50;;;16.80;99.90;;;;;;6281496;22;20162;-87
2023/07/18 04:01:08;;;;;;;6.47;4.30;;;16.80;99.90;;;;;;6280480;22;20165;-86
2023/07/18 04:03:36;;;;;;;7.57;4.57;;;16.80;99.90;;;;;;6254049;22;20176;-85
2023/07/18 04:06:03;;;;;;;8.87;4.50;;;16.90;99.90;;;;;;6254423;22;20173;-85
2023/07/18 04:08:30;;;;;;;8.23;4.63;;;16.80;99.90;;;;;;6254717;22;20166;-85
2023/07/18 04:11:00;;;;;;;6.93;4.50;;;16.70;99.90;;;;;;6279175;22;20170;-86
2023/07/18 04:13:27;;;;;;;7.90;4.50;;;16.80;99.90;;;;;;6279937;22;20177;-86
2023/07/18 04:15:55;;;;;;;7.57;4.20;;;16.90;99.90;;;;;;6281437;22;20177;-86
2023/07/18 04:18:23;;;;;;;7.17;4.23;;;16.90;99.90;;;;;;6281386;22;20162;-85
2023/07/18 04:21:00;;;;;;;7.37;4.33;;;16.90;99.90;;;;;;6281636;22;20161;-86
2023/07/18 04:23:27;;;;;;;8.00;4.37;;;16.90;99.90;;;;;;6255711;22;20146;-86
2023/07/18 04:26:01;;;;;;;7.23;4.30;;;17.00;99.90;;;;;;6254929;22;20473;-85
2023/07/18 04:28:34;;;;;;;7.10;3.80;;;17.00;99.90;;;;;;6229235;22;20169;-85
2023/07/18 04:31:02;;;;;;;7.83;4.00;;;17.10;99.90;;;;;;6254599;22;20160;-87
2023/07/18 04:33:35;;;;;;;7.80;4.10;;;17.10;99.90;;;;;;6254998;22;20226;-86
2023/07/18 04:36:04;;;;;;;7.60;4.00;;;17.20;99.90;;;;;;6254526;22;20242;-86
2023/07/18 04:38:31;;;;;;;5.90;3.90;;;17.30;99.90;;;;;;6254545;22;20196;-86
2023/07/18 04:40:58;;;;;;;5.70;3.60;;;17.40;99.90;;;;;;6254477;22;20158;-87
2023/07/18 04:43:27;;;;;;;5.80;3.97;;;17.50;99.90;;;;;;6254501;22;20172;-86
2023/07/18 04:45:54;;;;;;;5.47;3.73;;;17.50;99.90;;;;;;6253842;22;20166;-87
2023/07/18 04:48:21;;;;;;;8.40;3.80;;;17.50;99.90;;;;;;6254814;22;20169;-86
2023/07/18 04:50:55;;;;;;;7.60;3.70;;;17.60;99.90;;;;;;6255503;22;20165;-86
2023/07/18 04:53:25;;;;;;;7.03;3.67;;;17.40;99.90;;;;;;6280801;22;20211;-86
2023/07/18 04:55:52;;;;;;;5.10;3.60;;;17.40;99.90;;;;;;6254691;22;20241;-86
2023/07/18 04:58:19;;;;;;;5.57;3.63;;;17.50;99.90;;;;;;6254575;22;20176;-87
2023/07/18 05:00:46;;;;;;;6.43;3.90;;;17.50;99.90;;;;;;6254233;22;20489;-87
2023/07/18 05:03:13;;;;;;;6.50;4.10;;;17.60;99.90;;;;;;6253752;22;20190;-86
2023/07/18 05:05:41;;;;;;;9.07;4.03;;;17.70;99.90;;;;;;6253397;22;20177;-87
2023/07/18 05:08:19;;;;;;;7.57;3.97;;;17.80;99.90;;;;;;6280783;22;20190;-87
2023/07/18 05:10:46;;;;;;;9.90;3.80;;;17.80;99.90;;;;;;6254732;22;20165;-86
2023/07/18 05:13:13;;;;;;;9.23;3.80;;;18.00;99.90;;;;;;6279491;22;20193;-86
2023/07/18 05:15:44;;;;;;;7.10;3.53;;;18.10;99.90;;;;;;6253976;22;20182;-85
2023/07/18 05:18:12;;;;;;;6.67;3.63;;;18.20;99.90;;;;;;6254646;22;20189;-87
2023/07/18 05:20:39;;;;;;;8.90;4.00;;;18.10;99.90;;;;;;6280717;22;20161;-88
2023/07/18 05:23:16;;;;;;;7.03;3.53;;;17.90;99.90;;;;;;6282207;22;20178;-89
2023/07/18 05:25:44;;;;;;;5.73;3.10;;;18.20;99.90;;;;;;6255311;22;20188;-86
2023/07/18 05:28:11;;;;;;;5.70;3.20;;;18.10;99.90;;;;;;6229459;22;20189;-90
2023/07/18 05:30:38;;;;;;;5.70;3.20;;;18.20;99.90;;;;;;6253986;22;20567;-87
2023/07/18 05:33:06;;;;;;;7.83;3.20;;;18.30;99.90;;;;;;6280603;22;20257;-87
2023/07/18 05:35:34;;;;;;;4.37;2.90;;;18.50;99.90;;;;;;6279030;22;20223;-86
2023/07/18 05:38:04;;;;;;;5.93;3.00;;;18.50;99.90;;;;;;6229278;22;20182;-86
2023/07/18 05:40:31;;;;;;;5.93;3.20;;;18.60;99.90;;;;;;6279151;22;20263;-84
2023/07/18 05:42:58;;;;;;;5.47;3.00;;;18.50;99.90;;;;;;6253928;22;20190;-88
2023/07/18 05:45:25;;;;;;;6.73;3.17;;;18.60;99.90;;;;;;6280100;22;20170;-89
2023/07/18 05:47:52;;;;;;;5.17;3.03;;;18.60;99.90;;;;;;6273899;22;20190;-89
2023/07/18 05:50:19;;;;;;;5.40;3.07;;;18.60;99.90;;;;;;6248954;23;20218;-88
2023/07/18 05:52:46;;;;;;;8.50;2.87;;;18.60;99.90;;;;;;6280191;22;20185;-88
2023/07/18 05:55:13;;;;;;;7.53;3.20;;;18.70;99.90;;;;;;6252753;22;20202;-86
2023/07/18 05:57:41;;;;;;;4.67;3.13;;;18.80;99.90;;;;;;6250690;23;20451;-84
2023/07/18 06:00:11;;;;;;;5.27;2.93;;;18.90;99.90;;;;;;6251849;23;20204;-84
2023/07/18 06:02:39;;;;;;;5.20;2.90;;;18.90;99.90;;;;;;6250255;23;20205;-85
2023/07/18 06:05:06;;;;;;;5.20;2.77;;;18.80;99.90;;;;;;6252051;23;20232;-85
2023/07/18 06:07:33;;;;;;;6.13;2.80;;;18.90;99.90;;;;;;6225222;23;20200;-85
2023/07/18 06:10:01;;;;;;;4.30;2.93;;;18.90;99.90;;;;;;6249730;23;20174;-86
2023/07/18 06:12:28;;;;;;;5.63;3.20;;;19.00;99.90;;;;;;6251634;23;20183;-85
2023/07/18 06:14:55;;;;;;;5.43;3.00;;;19.10;99.90;;;;;;6224811;23;20170;-85
2023/07/18 06:17:22;;;;;;;5.20;2.87;;;19.20;99.90;;;;;;6194456;23;20234;-86
2023/07/18 06:19:49;;;;;;;5.87;2.70;;;19.30;99.90;;;;;;6249522;23;20170;-84
2023/07/18 06:22:16;;;;;;;6.57;3.07;;;19.20;99.90;;;;;;6251000;23;20182;-84
2023/07/18 06:24:45;;;;;;;4.33;2.67;;;19.40;99.90;;;;;;6224866;23;20173;-92
2023/07/18 06:27:12;;;;;;;5.30;3.00;;;19.20;99.90;;;;;;6200192;23;20190;-89
2023/07/18 06:29:39;;;;;;;4.40;2.60;;;19.30;99.90;;;;;;6225316;23;20173;-90
2023/07/18 06:32:08;;;;;;;5.47;2.87;;;19.30;99.90;;;;;;6200685;23;20190;-90
2023/07/18 06:34:40;;;;;;;4.53;2.93;;;19.50;99.90;;;;;;6252629;23;20162;-89
2023/07/18 06:37:08;;;;;;;4.57;2.80;;;19.60;99.90;;;;;;6250849;23;20190;-88
2023/07/18 06:39:37;;;;;;;4.93;3.27;;;19.70;99.90;;;;;;6225426;23;20170;-88
2023/07/18 06:42:06;;;;;;;4.13;2.80;;;19.70;99.90;;;;;;6250859;23;20178;-88
2023/07/18 06:44:33;;;;;;;3.93;2.80;;;19.80;99.90;;;;;;6225306;23;20237;-86
2023/07/18 06:47:01;;;;;;;4.93;3.10;;;19.80;99.90;;;;;;6225588;23;20269;-88
2023/07/18 06:49:28;;;;;;;5.57;2.80;;;19.70;99.90;;;;;;6200086;23;20529;-87
2023/07/18 06:51:55;;;;;;;5.73;2.83;;;19.60;99.90;;;;;;6251234;23;20257;-86
2023/07/18 06:54:22;;;;;;;3.53;2.70;;;19.70;99.90;;;;;;6241274;22;20197;-86
2023/07/18 06:56:49;;;;;;;5.13;2.63;;;19.70;99.90;;;;;;6256107;22;20228;-89
2023/07/18 06:59:16;;;;;;;4.70;2.60;;;19.80;99.90;;;;;;6256418;22;20208;-87
2023/07/18 07:01:43;;;;;;;5.83;3.00;;;20.00;99.90;;;;;;6281359;22;20221;-89
2023/07/18 07:04:10;;;;;;;4.37;2.80;;;20.00;99.90;;;;;;6226085;23;20174;-87
2023/07/18 07:06:41;;;;;;;5.40;2.73;;;20.10;99.90;;;;;;6278851;22;20256;-88
2023/07/18 07:09:10;;;;;;;3.83;2.90;;;20.20;99.90;;;;;;6280821;22;20232;-88
2023/07/18 07:11:37;;;;;;;4.60;3.00;;;20.20;99.90;;;;;;6254938;22;20594;-87
2023/07/18 07:14:06;;;;;;;4.33;3.00;;;20.20;99.90;;;;;;6281165;22;20252;-89
2023/07/18 07:16:35;;;;;;;6.17;3.20;;;20.20;99.90;;;;;;6280284;22;20185;-86
2023/07/18 07:19:02;;;;;;;5.20;3.50;;;20.30;99.90;;;;;;6281965;22;20232;-87
2023/07/18 07:21:29;;;;;;;5.90;3.43;;;20.30;99.90;;;;;;6254577;22;20182;-87
2023/07/18 07:23:56;;;;;;;5.00;3.33;;;20.50;99.90;;;;;;6281671;22;20162;-88
2023/07/18 07:26:24;;;;;;;4.80;3.43;;;20.50;99.90;;;;;;6255477;22;20197;-88
2023/07/18 07:28:52;;;;;;;5.33;3.17;;;20.60;99.90;;;;;;6257208;22;20208;-88
2023/07/18 07:31:19;;;;;;;5.70;3.27;;;20.60;99.90;;;;;;6281969;22;20260;-88
2023/07/18 07:33:46;;;;;;;7.60;2.80;;;20.60;99.90;;;;;;6281081;22;20493;-88
2023/07/18 07:36:15;;;;;;;4.37;2.80;;;20.70;99.90;;;;;;6255583;22;20618;-88
2023/07/18 07:38:42;;;;;;;7.20;2.97;;;20.80;99.90;;;;;;6282633;22;20401;-86
2023/07/18 07:41:09;;;;;;;4.80;2.77;;;21.00;99.90;;;;;;6255744;22;20295;-89
2023/07/18 07:43:36;;;;;;;5.00;2.40;;;21.00;99.90;;;;;;6283383;22;20158;-89
2023/07/18 07:46:04;;;;;;;5.53;2.70;;;21.00;99.90;;;;;;6256272;22;20204;-88
2023/07/18 07:48:31;;;;;;;7.17;2.70;;;20.90;99.90;;;;;;6255519;22;20227;-86
2023/07/18 07:51:00;;;;;;;4.33;2.50;;;21.00;99.90;;;;;;6254949;22;20225;-89
2023/07/18 07:53:27;;;;;;;5.83;2.80;;;21.00;99.90;;;;;;6282748;22;20353;-88
2023/07/18 07:55:54;;;;;;;4.10;2.30;;;20.70;99.90;;;;;;6255837;22;20185;-88
2023/07/18 07:58:21;;;;;;;3.83;2.30;;;20.90;99.90;;;;;;6281133;22;20176;-88
2023/07/18 08:00:48;;;;;;;3.17;2.40;;;20.90;99.90;;;;;;6255270;22;20252;-88
2023/07/18 08:03:16;;;;;;;3.23;2.40;;;21.00;99.90;;;;;;6280780;22;20197;-88
2023/07/18 08:05:43;;;;;;;4.30;2.77;;;21.10;99.90;;;;;;6254974;22;20180;-88
2023/07/18 08:08:10;;;;;;;4.13;2.87;;;21.20;99.90;;;;;;6280737;22;20251;-89
2023/07/18 08:10:37;;;;;;;4.87;3.10;;;21.20;99.90;;;;;;6281267;22;20196;-88
2023/07/18 08:13:05;;;;;;;5.77;3.30;;;21.20;99.90;;;;;;6254076;22;20606;-88
2023/07/18 08:15:32;;;;;;;4.53;3.00;;;21.40;99.90;;;;;;6280060;22;20185;-88
2023/07/18 08:18:00;;;;;;;3.87;2.63;;;21.50;99.90;;;;;;6254313;22;20459;-88
2023/07/18 08:20:27;;;;;;;4.20;3.23;;;21.40;99.90;;;;;;6254307;22;20196;-87
2023/07/18 08:22:54;;;;;;;3.97;2.30;;;21.40;99.90;;;;;;6253981;22;20559;-87
2023/07/18 08:25:22;;;;;;;5.33;2.20;;;21.50;99.90;;;;;;6281236;22;20608;-89
2023/07/18 08:27:49;;;;;;;7.03;4.27;;;21.60;99.90;;;;;;6280945;22;20564;-88
2023/07/18 08:30:16;;;;;;;3.85;2.40;;;22.20;99.90;;;;;;6280672;22;20161;-88
2023/07/18 08:32:43;;;;;;;3.03;2.40;;;22.70;99.90;;;;;;6280118;22;20193;-90
2023/07/18 08:35:11;;;;;;;3.42;2.22;;;23.20;99.90;;;;;;6281677;22;20494;-89
2023/07/18 08:37:39;;;;;;;3.08;1.80;;;23.60;99.90;;;;;;6280048;22;20483;-88
2023/07/18 08:40:09;;;;;;;3.05;1.70;;;23.90;99.90;;;;;;6281531;22;20245;-89
2023/07/18 08:42:37;;;;;;;3.22;1.70;;;23.70;99.90;;;;;;6281746;22;20259;-88
2023/07/18 08:45:07;;;;;;;2.63;1.60;;;24.00;99.90;;;;;;6223932;23;20484;-89
2023/07/18 08:47:36;;;;;;;1.88;1.30;;;24.50;99.90;;;;;;6247642;22;20186;-87
2023/07/18 08:50:03;;;;;;;2.13;1.33;;;24.60;99.90;;;;;;6228159;22;20325;-86
2023/07/18 08:52:31;;;;;;;1.73;1.40;;;24.90;99.90;;;;;;6254102;22;20199;-88
2023/07/18 08:54:58;;;;;;;3.20;1.50;;;24.60;99.90;;;;;;6281518;22;20195;-88
2023/07/18 08:57:26;;;;;;;2.35;1.40;;;24.90;99.90;;;;;;6254309;22;20193;-88
2023/07/18 08:59:54;;;;;;;1.80;1.30;;;25.30;99.90;;;;;;6253812;22;20166;-88
2023/07/18 09:02:21;;;;;;;1.58;1.20;;;25.60;99.30;;;;;;6253914;22;20564;-88
2023/07/18 09:04:50;;;;;;;2.47;1.35;;;25.70;96.90;;;;;;6279804;22;20184;-88
2023/07/18 09:07:19;;;;;;;1.65;1.10;;;25.60;95.60;;;;;;6254957;22;20181;-88
2023/07/18 09:09:49;;;;;;;2.28;1.20;;;25.70;95.00;;;;;;6281337;22;20161;-86
2023/07/18 09:12:16;;;;;;;1.00;0.90;;;25.40;93.10;;;;;;6279684;22;20286;-89
2023/07/18 09:14:43;;;;;;;1.45;0.80;;;25.60;92.60;;;;;;6281123;22;20248;-88
2023/07/18 09:17:11;;;;;;;2.60;1.00;;;25.90;91.20;;;;;;6228628;22;20448;-88
2023/07/18 09:19:40;;;;;;;2.30;1.05;;;25.90;90.70;;;;;;6254732;22;20434;-88
2023/07/18 09:22:09;;;;;;;6.72;1.10;;;25.40;89.30;;;;;;6280819;22;20177;-88
2023/07/18 09:24:37;;;;;;;2.85;1.10;;;25.00;91.20;;;;;;6280861;22;20240;-87
2023/07/18 09:27:06;;;;;;;2.00;0.95;;;25.40;89.50;;;;;;6228318;22;20192;-87
2023/07/18 09:29:34;;;;;;;1.05;0.80;;;25.60;89.90;;;;;;6253715;22;20201;-88
2023/07/18 09:32:01;;;;;;;2.03;1.02;;;25.70;86.70;;;;;;6282742;22;20185;-87
2023/07/18 09:34:28;;;;;;;1.73;0.90;;;25.90;84.90;;;;;;6281498;22;20472;-87
2023/07/18 09:37:03;;;;;;;1.60;0.93;;;25.70;84.50;;;;;;6283275;22;20219;-87
2023/07/18 09:39:30;;;;;;;2.10;0.90;;;25.50;83.50;;;;;;6283736;22;20145;-85
2023/07/18 09:41:57;;;;;;;2.97;0.98;;;25.70;86.80;;;;;;6256938;22;20308;-88
2023/07/18 09:44:26;;;;;;;2.03;0.90;;;26.20;84.30;;;;;;6257264;22;20197;-86
2023/07/18 09:47:00;;;;;;;1.55;0.95;;;26.60;82.80;;;;;;6256729;22;20193;-88
2023/07/18 09:49:29;;;;;;;1.73;1.00;;;26.50;79.70;;;;;;6281551;22;20204;-85
2023/07/18 09:52:04;;;;;;;1.23;0.90;;;26.60;81.50;;;;;;6250807;23;20244;-88
2023/07/18 09:54:32;;;;;;;1.55;0.77;;;26.20;81.30;;;;;;6246334;23;20532;-88
2023/07/18 09:57:03;;;;;;;0.90;0.80;;;26.50;81.80;;;;;;6251419;23;20454;-88
2023/07/18 09:59:30;;;;;;;4.07;1.17;;;26.10;78.00;;;;;;6252501;22;20147;-89
2023/07/18 10:01:57;;;;;;;2.53;0.98;;;25.50;79.40;;;;;;6252534;23;20182;-87
2023/07/18 10:04:25;;;;;;;1.67;0.80;;;25.80;79.60;;;;;;6251471;23;20197;-88
2023/07/18 10:06:55;;;;;;;2.30;0.80;;;26.10;77.30;;;;;;6252662;22;20274;-86
2023/07/18 10:09:23;;;;;;;0.88;0.70;;;25.80;77.40;;;;;;6251464;23;20163;-85
2023/07/18 10:12:02;;;;;;;0.80;0.60;;;26.00;74.50;;;;;;6276144;22;20217;-89
2023/07/18 10:14:30;;;;;;;1.65;0.80;;;26.40;73.50;;;;;;6250967;23;20258;-87
2023/07/18 10:16:59;;;;;;;1.33;0.80;;;26.80;74.80;;;;;;6276183;22;20197;-88
2023/07/18 10:19:28;;;;;;;1.17;0.85;;;27.00;74.70;;;;;;6252218;22;20176;-86
2023/07/18 10:21:57;;;;;;;1.17;0.65;;;27.20;73.40;;;;;;6252058;22;20577;-87
2023/07/18 10:24:28;;;;;;;1.30;0.80;;;27.30;72.70;;;;;;6251043;23;20186;-88
2023/07/18 10:27:00;;;;;;;2.00;1.00;;;27.60;74.40;;;;;;6250908;23;20174;-87
2023/07/18 10:29:34;;;;;;;1.27;0.90;;;27.20;74.80;;;;;;6226077;23;20212;-87
2023/07/18 10:32:01;;;;;;;1.58;0.82;;;28.10;74.20;;;;;;6252324;22;20186;-88
2023/07/18 10:34:27;;;;;;;2.45;0.85;;;28.00;72.50;;;;;;6250719;23;20236;-87
2023/07/18 10:37:00;;;;;;;1.30;0.80;;;28.30;72.80;;;;;;6250368;23;20243;-87
2023/07/18 10:39:43;;;;;;;0.90;0.70;;;28.40;71.70;;;;;;6251206;23;20163;-89
2023/07/18 10:42:21;;;;;;;2.10;1.10;;;28.70;70.70;;;;;;6276233;22;20190;-87
2023/07/18 10:44:53;;;;;;;4.18;2.28;;;29.20;72.00;;;;;;6250858;23;20257;-87
2023/07/18 10:47:20;;;;;;;1.60;0.90;;;29.70;70.80;;;;;;6252850;22;20197;-91
2023/07/18 10:49:47;;;;;;;1.65;0.80;;;29.80;68.20;;;;;;6276885;22;20176;-88
2023/07/18 10:52:15;;;;;;;2.92;1.17;;;29.50;67.50;;;;;;6250814;23;20186;-87
2023/07/18 10:54:54;;;;;;;1.65;0.90;;;29.30;66.60;;;;;;6250753;23;20276;-87
2023/07/18 10:57:26;;;;;;;2.40;1.00;;;28.60;68.50;;;;;;6250820;23;20410;-87
2023/07/18 10:59:53;;;;;;;2.88;1.00;;;28.50;68.10;;;;;;6250412;23;20466;-87
2023/07/18 11:02:21;;;;;;;1.83;1.00;;;28.20;68.30;;;;;;6252056;22;20174;-90
2023/07/18 11:04:51;;;;;;;1.30;0.75;;;28.60;67.50;;;;;;6251128;23;20541;-87
2023/07/18 11:07:28;;;;;;;3.80;0.93;;;28.90;68.10;;;;;;6250553;23;20190;-86
2023/07/18 11:09:56;;;;;;;1.30;0.80;;;29.30;68.00;;;;;;6252209;22;20150;-87
2023/07/18 11:12:23;;;;;;;2.15;0.90;;;28.90;67.10;;;;;;6224597;23;20190;-86
2023/07/18 11:14:50;;;;;;;1.63;1.00;;;28.90;68.80;;;;;;6250931;23;20205;-90
2023/07/18 11:17:19;;;;;;;1.42;0.90;;;29.70;68.00;;;;;;6251429;22;20197;-89
2023/07/18 11:19:47;;;;;;;1.10;0.80;;;29.60;65.10;;;;;;6250406;23;20261;-89
2023/07/18 11:22:15;;;;;;;1.60;0.98;;;29.80;66.10;;;;;;6249907;23;20557;-88
2023/07/18 11:24:44;;;;;;;3.33;1.00;;;29.20;66.00;;;;;;6250060;23;20185;-86
2023/07/18 11:27:18;;;;;;;2.00;1.08;;;29.80;67.30;;;;;;6249991;23;20190;-83
2023/07/18 11:29:58;;;;;;;1.58;1.00;;;29.70;65.60;;;;;;6249829;23;20244;-83
2023/07/18 11:32:35;;;;;;;1.73;0.90;;;29.60;68.00;;;;;;6274911;22;20221;-83
2023/07/18 11:35:06;;;;;;;4.35;1.13;;;29.10;65.90;;;;;;6251094;22;20451;-83
2023/07/18 11:37:38;;;;;;;1.33;1.00;;;28.60;66.00;;;;;;6249627;23;20258;-83
2023/07/18 11:40:10;;;;;;;1.55;0.90;;;29.00;68.70;;;;;;6250017;23;20169;-83
2023/07/18 11:42:42;;;;;;;1.48;0.90;;;29.80;65.20;;;;;;6275017;22;20182;-83
2023/07/18 11:45:10;;;;;;;2.72;0.98;;;30.00;65.20;;;;;;6250927;22;20564;-83
2023/07/18 11:47:42;;;;;;;4.47;1.10;;;29.80;64.90;;;;;;6250078;23;20277;-83
2023/07/18 11:50:11;;;;;;;2.40;0.90;;;30.60;63.40;;;;;;6275390;22;20198;-83
2023/07/18 11:52:40;;;;;;;2.30;1.05;;;31.00;62.10;;;;;;6275066;22;20289;-85
2023/07/18 11:55:07;;;;;;;2.40;0.90;;;30.50;60.80;;;;;;6249928;23;20190;-85
2023/07/18 11:57:34;;;;;;;1.92;0.77;;;30.30;61.20;;;;;;6250311;23;20174;-85
2023/07/18 12:00:03;;;;;;;2.25;0.77;;;30.20;63.10;;;;;;6250872;23;20517;-84
2023/07/18 12:02:30;;;;;;;2.42;0.80;;;31.10;62.50;;;;;;6250156;23;20187;-87
2023/07/18 12:04:57;;;;;;;1.25;0.73;;;30.90;59.50;;;;;;6249566;23;20176;-86
2023/07/18 12:07:24;;;;;;;2.13;0.90;;;31.30;59.60;;;;;;6274819;22;20190;-84
2023/07/18 12:09:52;;;;;;;1.95;0.70;;;31.10;59.20;;;;;;6248890;23;20166;-84
2023/07/18 12:12:21;;;;;;;1.60;0.90;;;31.20;57.90;;;;;;6249049;23;20259;-84
2023/07/18 12:14:48;;;;;;;1.65;0.75;;;31.80;58.10;;;;;;6274053;22;20175;-83
2023/07/18 12:17:15;;;;;;;1.77;0.68;;;31.60;58.40;;;;;;6248320;22;20197;-83
2023/07/18 12:19:42;;;;;;;1.90;0.90;;;32.50;58.10;;;;;;6274746;22;20162;-85
2023/07/18 12:22:09;;;;;;;1.45;0.68;;;32.70;56.90;;;;;;6248463;23;20186;-85
2023/07/18 12:24:37;;;;;;;1.63;0.80;;;33.30;56.10;;;;;;6250199;23;20268;-83
2023/07/18 12:27:05;;;;;;;1.35;0.90;;;32.10;56.10;;;;;;6275140;22;20179;-85
2023/07/18 12:29:32;;;;;;;1.00;0.70;;;31.90;57.10;;;;;;6249512;23;20166;-83
2023/07/18 12:31:59;;;;;;;1.83;0.82;;;31.20;58.60;;;;;;6249881;23;20186;-84
2023/07/18 12:34:27;;;;;;;2.42;1.02;;;31.80;58.00;;;;;;6251695;22;20261;-86
2023/07/18 12:36:54;;;;;;;1.65;0.80;;;32.20;57.40;;;;;;6275018;22;20196;-86
2023/07/18 12:39:22;;;;;;;4.03;0.90;;;31.20;55.30;;;;;;6250947;23;20166;-84
2023/07/18 12:41:49;;;;;;;1.20;0.80;;;31.10;56.40;;;;;;6249060;23;20561;-85
2023/07/18 12:44:19;;;;;;;1.58;0.90;;;31.20;57.50;;;;;;6273955;22;20429;-85
2023/07/18 12:46:49;;;;;;;1.60;0.65;;;31.70;57.30;;;;;;6250366;22;20270;-85
2023/07/18 12:49:16;;;;;;;1.40;0.77;;;30.50;56.20;;;;;;6250544;22;20245;-87
2023/07/18 12:52:05;;;;;;;2.05;0.90;;;30.80;57.30;;;;;;6274284;22;20239;-84